Impacts TAF Board
For situational awareness. Not to be used for flight planning purposes.
IDs:

KORD - Chicago/O'Hare Intl, IL, US

Issued at 0902 UTC 23 Jul 2019
Updated at 0951 UTC 23 Jul 2019
Potential Impact None Slight Moderate High
Time<<24/10Z 24/11Z 24/12Z 24/13Z 24/14Z 24/15Z 24/16Z 24/17Z 24/18Z 24/19Z 24/20Z 24/21Z 24/22Z
Type PRVL PRVL
VIS >6 >6
CIG -- --
Cover SCT SCT
FltCat VFR VFR
WX -- --
WDir 340 340
WSpd 5 5
WGst -- --
Raw TAF
KORD 230902Z 2309/2412 30005KT P6SM FEW070 FEW250
  FM231500 34011G17KT P6SM SCT050
  FM232130 04009KT P6SM VCSH SCT060
  FM240300 34005KT P6SM SCT070


METAR Board
Radar Display
Forecast Discussion
For situational awareness. Not to be used for flight planning purposes.